CSN3966 ZSSS-ZGSZ
Flight info
| Callsign | CSN3966 |
|---|---|
| Flight time | N/A |
| Altitude | 30100 |
| Route | NXD W131 AKDIM A470 BEBEM R200 GUBLO |
| Aircraft | A339/H-SADE1E2E3GHIJ3J5M1P2RWXY/LB2D1 |
Departure
| Time | 2026-04-28 07:32 |
|---|---|
| Airport | Shanghai Hongqiao International Airport (ZSSS) |
Arrival
| Time | N/A |
|---|---|
| Airport | Shenzhen Bao'an International Airport (ZGSZ) |
| Time | Latitude | Longitude | Altitude | Speed | Heading |
|---|---|---|---|---|---|
| 2026-04-28 07:16 | 31.19481 | 121.32777 | 23 ft | 0 kts | 195° |
| 2026-04-28 07:20 | 31.19495 | 121.32781 | 23 ft | 2 kts | 195° |
| 2026-04-28 07:20 | 31.19509 | 121.32786 | 23 ft | 0 kts | 195° |
| 2026-04-28 07:20 | 31.19512 | 121.32787 | 23 ft | 2 kts | 195° |
| 2026-04-28 07:21 | 31.19527 | 121.32791 | 23 ft | 2 kts | 195° |
| 2026-04-28 07:21 | 31.19541 | 121.32796 | 23 ft | 2 kts | 182° |
| 2026-04-28 07:21 | 31.19556 | 121.32793 | 23 ft | 2 kts | 152° |
| 2026-04-28 07:22 | 31.19575 | 121.32767 | 23 ft | 2 kts | 101° |
| 2026-04-28 07:22 | 31.19575 | 121.32750 | 23 ft | 2 kts | 83° |
| 2026-04-28 07:22 | 31.19574 | 121.32732 | 23 ft | 1 kts | 87° |
| 2026-04-28 07:22 | 31.19574 | 121.32729 | 23 ft | 0 kts | 88° |
| 2026-04-28 07:26 | 31.19574 | 121.32744 | 23 ft | 4 kts | 87° |
| 2026-04-28 07:26 | 31.19577 | 121.32812 | 23 ft | 12 kts | 87° |
| 2026-04-28 07:26 | 31.19582 | 121.32925 | 23 ft | 13 kts | 86° |
| 2026-04-28 07:26 | 31.19588 | 121.33025 | 23 ft | 9 kts | 89° |
| 2026-04-28 07:27 | 31.19561 | 121.33066 | 23 ft | 6 kts | 155° |
| 2026-04-28 07:27 | 31.19513 | 121.33073 | 23 ft | 7 kts | 180° |
| 2026-04-28 07:27 | 31.19455 | 121.33073 | 23 ft | 9 kts | 180° |
| 2026-04-28 07:27 | 31.19386 | 121.33073 | 23 ft | 10 kts | 180° |
| 2026-04-28 07:28 | 31.19309 | 121.33079 | 23 ft | 11 kts | 175° |
| 2026-04-28 07:28 | 31.19224 | 121.33084 | 23 ft | 12 kts | 176° |
| 2026-04-28 07:28 | 31.19134 | 121.33090 | 23 ft | 13 kts | 176° |
| 2026-04-28 07:28 | 31.19037 | 121.33098 | 23 ft | 14 kts | 175° |
| 2026-04-28 07:29 | 31.18935 | 121.33104 | 23 ft | 15 kts | 179° |
| 2026-04-28 07:29 | 31.18829 | 121.33108 | 23 ft | 15 kts | 177° |
| 2026-04-28 07:29 | 31.18718 | 121.33114 | 23 ft | 16 kts | 176° |
| 2026-04-28 07:29 | 31.18605 | 121.33122 | 23 ft | 16 kts | 176° |
| 2026-04-28 07:30 | 31.18495 | 121.33134 | 23 ft | 12 kts | 161° |
| 2026-04-28 07:30 | 31.18470 | 121.33206 | 23 ft | 10 kts | 86° |
| 2026-04-28 07:30 | 31.18479 | 121.33292 | 23 ft | 10 kts | 73° |
| 2026-04-28 07:30 | 31.18521 | 121.33320 | 23 ft | 7 kts | 4° |
| 2026-04-28 07:31 | 31.18581 | 121.33317 | 23 ft | 9 kts | 354° |
| 2026-04-28 07:31 | 31.18650 | 121.33310 | 23 ft | 10 kts | 358° |
| 2026-04-28 07:31 | 31.18901 | 121.33298 | 23 ft | 69 kts | 357° |
| 2026-04-28 07:31 | 31.19602 | 121.33257 | 24 ft | 129 kts | 358° |
| 2026-04-28 07:32 | 31.20674 | 121.33205 | 88 ft | 171 kts | 360° |
| 2026-04-28 07:32 | 31.21862 | 121.33036 | 636 ft | 176 kts | 351° |
| 2026-04-28 07:32 | 31.22960 | 121.32431 | 1365 ft | 183 kts | 319° |
| 2026-04-28 07:32 | 31.23646 | 121.31220 | 2229 ft | 177 kts | 309° |
| 2026-04-28 07:33 | 31.24250 | 121.29997 | 2840 ft | 177 kts | 309° |
| 2026-04-28 07:33 | 31.24900 | 121.28713 | 3432 ft | 177 kts | 310° |
| 2026-04-28 07:33 | 31.25566 | 121.27445 | 3902 ft | 177 kts | 310° |
| 2026-04-28 07:33 | 31.26264 | 121.26152 | 4247 ft | 185 kts | 309° |
| 2026-04-28 07:34 | 31.27027 | 121.24753 | 4531 ft | 199 kts | 308° |
| 2026-04-28 07:34 | 31.27740 | 121.23285 | 4788 ft | 217 kts | 289° |
| 2026-04-28 07:34 | 31.27695 | 121.21486 | 5094 ft | 231 kts | 244° |
| 2026-04-28 07:34 | 31.26808 | 121.19913 | 5417 ft | 240 kts | 229° |
| 2026-04-28 07:35 | 31.25721 | 121.18330 | 5716 ft | 256 kts | 227° |
| 2026-04-28 07:35 | 31.24585 | 121.16651 | 6019 ft | 272 kts | 228° |
| 2026-04-28 07:35 | 31.23412 | 121.14851 | 6366 ft | 287 kts | 229° |
| 2026-04-28 07:35 | 31.22182 | 121.13020 | 7000 ft | 287 kts | 220° |
| 2026-04-28 07:36 | 31.20496 | 121.11942 | 7879 ft | 272 kts | 190° |
| 2026-04-28 07:36 | 31.18669 | 121.11870 | 8822 ft | 262 kts | 177° |
| 2026-04-28 07:36 | 31.16857 | 121.12003 | 9433 ft | 266 kts | 179° |
| 2026-04-28 07:36 | 31.14984 | 121.12134 | 10090 ft | 269 kts | 180° |
| 2026-04-28 07:37 | 31.13118 | 121.12253 | 10629 ft | 276 kts | 180° |
| 2026-04-28 07:37 | 31.11142 | 121.12339 | 10905 ft | 291 kts | 185° |
| 2026-04-28 07:37 | 31.09141 | 121.11845 | 11196 ft | 301 kts | 206° |
| 2026-04-28 07:37 | 31.07363 | 121.10490 | 11478 ft | 314 kts | 225° |
| 2026-04-28 07:38 | 31.06077 | 121.08408 | 11937 ft | 323 kts | 244° |
| 2026-04-28 07:38 | 31.05387 | 121.05904 | 12648 ft | 326 kts | 253° |
| 2026-04-28 07:38 | 31.04759 | 121.03376 | 13325 ft | 327 kts | 252° |
| 2026-04-28 07:38 | 31.04121 | 121.00839 | 14032 ft | 328 kts | 253° |
| 2026-04-28 07:39 | 31.03490 | 120.98314 | 14679 ft | 330 kts | 252° |
| 2026-04-28 07:39 | 31.02842 | 120.95712 | 15261 ft | 334 kts | 253° |
| 2026-04-28 07:39 | 31.02201 | 120.93135 | 15844 ft | 337 kts | 253° |
| 2026-04-28 07:39 | 31.01540 | 120.90487 | 16384 ft | 341 kts | 253° |
| 2026-04-28 07:40 | 31.00887 | 120.87862 | 16934 ft | 344 kts | 253° |
| 2026-04-28 07:40 | 31.00217 | 120.85163 | 17456 ft | 348 kts | 253° |
| 2026-04-28 07:40 | 30.99546 | 120.82478 | 17965 ft | 351 kts | 254° |
| 2026-04-28 07:40 | 30.98859 | 120.79713 | 18441 ft | 355 kts | 254° |
| 2026-04-28 07:41 | 30.98177 | 120.76973 | 18968 ft | 358 kts | 253° |
| 2026-04-28 07:41 | 30.97473 | 120.74159 | 19506 ft | 360 kts | 254° |
| 2026-04-28 07:41 | 30.96780 | 120.71381 | 19993 ft | 363 kts | 254° |
| 2026-04-28 07:41 | 30.96067 | 120.68529 | 20491 ft | 366 kts | 253° |
| 2026-04-28 07:42 | 30.95363 | 120.65715 | 20959 ft | 368 kts | 254° |
| 2026-04-28 07:42 | 30.94641 | 120.62834 | 21443 ft | 371 kts | 254° |
| 2026-04-28 07:42 | 30.93925 | 120.59978 | 21891 ft | 373 kts | 253° |
| 2026-04-28 07:42 | 30.93192 | 120.57050 | 22337 ft | 376 kts | 253° |
| 2026-04-28 07:43 | 30.92463 | 120.54158 | 22774 ft | 378 kts | 254° |
| 2026-04-28 07:43 | 30.91721 | 120.51208 | 23244 ft | 379 kts | 253° |
| 2026-04-28 07:43 | 30.90986 | 120.48293 | 23659 ft | 382 kts | 253° |
| 2026-04-28 07:43 | 30.90040 | 120.45355 | 24065 ft | 385 kts | 244° |
| 2026-04-28 07:44 | 30.88557 | 120.42760 | 24541 ft | 389 kts | 233° |
| 2026-04-28 07:44 | 30.86632 | 120.40575 | 24985 ft | 395 kts | 222° |
| 2026-04-28 07:44 | 30.84392 | 120.38689 | 25358 ft | 399 kts | 220° |
| 2026-04-28 07:44 | 30.82102 | 120.36800 | 25736 ft | 402 kts | 219° |
| 2026-04-28 07:45 | 30.79831 | 120.34932 | 26122 ft | 405 kts | 219° |
| 2026-04-28 07:45 | 30.77524 | 120.33036 | 26531 ft | 407 kts | 219° |
| 2026-04-28 07:45 | 30.75192 | 120.31117 | 26919 ft | 410 kts | 219° |
| 2026-04-28 07:45 | 30.72880 | 120.29219 | 27301 ft | 412 kts | 219° |
| 2026-04-28 07:46 | 30.70517 | 120.27277 | 27657 ft | 415 kts | 219° |
| 2026-04-28 07:46 | 30.68166 | 120.25347 | 28031 ft | 417 kts | 219° |
| 2026-04-28 07:46 | 30.65806 | 120.23412 | 28413 ft | 419 kts | 219° |
| 2026-04-28 07:46 | 30.63404 | 120.21439 | 28715 ft | 422 kts | 219° |
| 2026-04-28 07:47 | 30.61017 | 120.19483 | 29039 ft | 424 kts | 220° |
| 2026-04-28 07:47 | 30.58586 | 120.17492 | 29408 ft | 426 kts | 219° |
| 2026-04-28 07:47 | 30.56150 | 120.15494 | 29761 ft | 428 kts | 219° |
| 2026-04-28 07:47 | 30.53733 | 120.13519 | 30029 ft | 431 kts | 219° |
| 2026-04-28 07:48 | 30.51277 | 120.11507 | 30329 ft | 434 kts | 219° |
| 2026-04-28 07:48 | 30.48814 | 120.09497 | 30656 ft | 436 kts | 220° |
| 2026-04-28 07:48 | 30.46312 | 120.07455 | 30956 ft | 438 kts | 220° |
| 2026-04-28 07:48 | 30.43778 | 120.05466 | 31284 ft | 441 kts | 218° |
| 2026-04-28 07:49 | 30.41161 | 120.03632 | 31714 ft | 441 kts | 216° |
| 2026-04-28 07:49 | 30.38529 | 120.01881 | 32128 ft | 440 kts | 216° |
| 2026-04-28 07:49 | 30.35883 | 120.00115 | 32570 ft | 439 kts | 216° |
| 2026-04-28 07:49 | 30.33212 | 119.98336 | 32911 ft | 439 kts | 217° |
| 2026-04-28 07:50 | 30.30562 | 119.96569 | 33106 ft | 442 kts | 217° |
| 2026-04-28 07:50 | 30.27905 | 119.94796 | 33367 ft | 444 kts | 217° |
| 2026-04-28 07:50 | 30.25212 | 119.93002 | 33693 ft | 445 kts | 217° |
| 2026-04-28 07:50 | 30.22531 | 119.91219 | 34080 ft | 444 kts | 217° |
| 2026-04-28 07:51 | 30.16289 | 119.87067 | 34144 ft | 447 kts | 217° |
| 2026-04-28 07:51 | 30.11794 | 119.84081 | 34144 ft | 446 kts | 217° |
| 2026-04-28 07:52 | 30.06405 | 119.80510 | 34137 ft | 447 kts | 217° |
| 2026-04-28 07:52 | 30.01017 | 119.76913 | 34134 ft | 447 kts | 217° |
| 2026-04-28 07:53 | 29.95675 | 119.73310 | 34125 ft | 447 kts | 217° |
| 2026-04-28 07:53 | 29.90126 | 119.70020 | 34124 ft | 452 kts | 210° |
| 2026-04-28 07:54 | 29.84094 | 119.67612 | 34112 ft | 463 kts | 202° |
| 2026-04-28 07:54 | 29.77733 | 119.66174 | 34106 ft | 471 kts | 194° |
| 2026-04-28 07:55 | 29.71185 | 119.65599 | 34098 ft | 476 kts | 190° |
| 2026-04-28 07:55 | 29.64556 | 119.65182 | 34092 ft | 475 kts | 190° |
| 2026-04-28 07:56 | 29.57912 | 119.64947 | 34087 ft | 477 kts | 188° |
| 2026-04-28 07:56 | 29.51300 | 119.64706 | 34087 ft | 476 kts | 190° |
| 2026-04-28 07:57 | 29.44689 | 119.64278 | 34069 ft | 477 kts | 190° |
| 2026-04-28 07:57 | 29.38071 | 119.63850 | 34064 ft | 477 kts | 189° |
| 2026-04-28 07:58 | 29.31419 | 119.63438 | 34064 ft | 479 kts | 189° |
| 2026-04-28 07:58 | 29.24743 | 119.63027 | 34056 ft | 478 kts | 189° |
| 2026-04-28 07:59 | 29.18144 | 119.62620 | 34038 ft | 478 kts | 189° |
| 2026-04-28 07:59 | 29.11494 | 119.62219 | 34041 ft | 479 kts | 189° |
| 2026-04-28 08:00 | 29.04844 | 119.61809 | 34027 ft | 478 kts | 189° |
| 2026-04-28 08:00 | 28.98157 | 119.61394 | 34018 ft | 479 kts | 189° |
| 2026-04-28 08:01 | 28.91509 | 119.60980 | 34019 ft | 480 kts | 189° |
| 2026-04-28 08:01 | 28.84825 | 119.60564 | 34027 ft | 479 kts | 189° |
| 2026-04-28 08:02 | 28.77078 | 119.60087 | 34037 ft | 478 kts | 189° |
| 2026-04-28 08:02 | 28.71494 | 119.59740 | 34044 ft | 480 kts | 189° |
| 2026-04-28 08:03 | 28.64842 | 119.59328 | 34041 ft | 479 kts | 189° |
| 2026-04-28 08:03 | 28.58183 | 119.58915 | 34031 ft | 479 kts | 189° |
| 2026-04-28 08:04 | 28.51493 | 119.58500 | 34027 ft | 479 kts | 189° |
| 2026-04-28 08:04 | 28.44867 | 119.58092 | 34024 ft | 480 kts | 189° |
| 2026-04-28 08:05 | 28.38141 | 119.57720 | 34030 ft | 480 kts | 189° |
| 2026-04-28 08:05 | 28.31450 | 119.57354 | 34026 ft | 480 kts | 189° |
| 2026-04-28 08:06 | 28.24765 | 119.56986 | 34030 ft | 480 kts | 189° |
| 2026-04-28 08:06 | 28.18104 | 119.56615 | 34039 ft | 480 kts | 189° |
| 2026-04-28 08:07 | 28.11432 | 119.56245 | 34053 ft | 479 kts | 189° |
| 2026-04-28 08:07 | 28.04699 | 119.56090 | 34062 ft | 482 kts | 187° |
| 2026-04-28 08:08 | 27.98012 | 119.55987 | 34073 ft | 482 kts | 187° |
| 2026-04-28 08:08 | 27.91257 | 119.55885 | 34071 ft | 482 kts | 187° |
| 2026-04-28 08:09 | 27.84551 | 119.55845 | 34066 ft | 481 kts | 186° |
| 2026-04-28 08:09 | 27.77858 | 119.55816 | 34058 ft | 481 kts | 186° |
| 2026-04-28 08:10 | 27.71146 | 119.55778 | 34055 ft | 482 kts | 186° |
| 2026-04-28 08:10 | 27.64449 | 119.55740 | 34063 ft | 482 kts | 186° |
| 2026-04-28 08:11 | 27.57701 | 119.55703 | 34070 ft | 482 kts | 186° |
| 2026-04-28 08:11 | 27.51020 | 119.55662 | 34083 ft | 481 kts | 186° |
| 2026-04-28 08:12 | 27.44314 | 119.55622 | 34084 ft | 481 kts | 186° |
| 2026-04-28 08:12 | 27.37634 | 119.55605 | 34072 ft | 481 kts | 186° |
| 2026-04-28 08:13 | 27.30928 | 119.55598 | 34063 ft | 482 kts | 186° |
| 2026-04-28 08:13 | 27.24197 | 119.55584 | 34049 ft | 480 kts | 186° |
| 2026-04-28 08:14 | 27.17531 | 119.55544 | 34046 ft | 480 kts | 186° |
| 2026-04-28 08:14 | 27.10816 | 119.55499 | 34042 ft | 481 kts | 186° |
| 2026-04-28 08:15 | 27.04110 | 119.55454 | 34038 ft | 481 kts | 186° |
| 2026-04-28 08:15 | 26.97438 | 119.55413 | 34035 ft | 480 kts | 186° |
| 2026-04-28 08:16 | 26.90773 | 119.55370 | 34029 ft | 480 kts | 186° |
| 2026-04-28 08:16 | 26.84124 | 119.55328 | 34028 ft | 481 kts | 186° |
| 2026-04-28 08:17 | 26.77350 | 119.55283 | 34025 ft | 480 kts | 186° |
| 2026-04-28 08:17 | 26.70671 | 119.55241 | 34022 ft | 479 kts | 186° |
| 2026-04-28 08:18 | 26.63964 | 119.55199 | 34018 ft | 479 kts | 186° |
| 2026-04-28 08:18 | 26.57284 | 119.55156 | 34012 ft | 479 kts | 186° |
| 2026-04-28 08:19 | 26.50611 | 119.55112 | 34007 ft | 479 kts | 186° |
| 2026-04-28 08:19 | 26.43932 | 119.55068 | 34004 ft | 479 kts | 186° |
| 2026-04-28 08:20 | 26.37280 | 119.55023 | 34000 ft | 478 kts | 186° |
| 2026-04-28 08:20 | 26.30642 | 119.54945 | 33997 ft | 478 kts | 186° |
| 2026-04-28 08:21 | 26.23971 | 119.54446 | 33992 ft | 473 kts | 192° |
| 2026-04-28 08:21 | 26.17524 | 119.53181 | 33987 ft | 468 kts | 198° |
| 2026-04-28 08:22 | 26.11296 | 119.51221 | 33981 ft | 466 kts | 202° |
| 2026-04-28 08:22 | 26.05082 | 119.49091 | 33979 ft | 466 kts | 202° |
| 2026-04-28 08:23 | 25.98871 | 119.46968 | 33975 ft | 465 kts | 202° |
| 2026-04-28 08:23 | 25.92685 | 119.44861 | 33978 ft | 465 kts | 202° |
| 2026-04-28 08:24 | 25.86459 | 119.42743 | 33985 ft | 465 kts | 202° |
| 2026-04-28 08:24 | 25.80390 | 119.40433 | 33992 ft | 461 kts | 208° |
| 2026-04-28 08:25 | 25.74737 | 119.37199 | 34005 ft | 453 kts | 217° |
| 2026-04-28 08:26 | 25.67396 | 119.30765 | 34003 ft | 446 kts | 229° |
| 2026-04-28 08:26 | 25.63151 | 119.25826 | 33993 ft | 443 kts | 230° |
| 2026-04-28 08:27 | 25.58913 | 119.20835 | 33987 ft | 444 kts | 230° |
| 2026-04-28 08:27 | 25.54682 | 119.15866 | 33992 ft | 444 kts | 230° |
| 2026-04-28 08:28 | 25.50453 | 119.10908 | 33995 ft | 443 kts | 230° |
| 2026-04-28 08:28 | 25.46214 | 119.05944 | 34000 ft | 444 kts | 230° |
| 2026-04-28 08:29 | 25.42005 | 119.01020 | 34004 ft | 442 kts | 230° |
| 2026-04-28 08:29 | 25.37783 | 118.96084 | 33997 ft | 443 kts | 230° |
| 2026-04-28 08:30 | 25.33536 | 118.91122 | 33990 ft | 442 kts | 230° |
| 2026-04-28 08:30 | 25.29397 | 118.86128 | 33985 ft | 442 kts | 231° |
| 2026-04-28 08:31 | 25.25309 | 118.81166 | 33976 ft | 441 kts | 231° |
| 2026-04-28 08:31 | 25.21185 | 118.76175 | 33973 ft | 441 kts | 231° |
| 2026-04-28 08:32 | 25.17060 | 118.71185 | 33983 ft | 440 kts | 231° |
| 2026-04-28 08:32 | 25.12946 | 118.66219 | 33989 ft | 441 kts | 231° |
| 2026-04-28 08:33 | 25.08805 | 118.61238 | 33996 ft | 440 kts | 230° |
| 2026-04-28 08:33 | 25.04564 | 118.56358 | 33996 ft | 441 kts | 229° |
| 2026-04-28 08:34 | 25.00313 | 118.51507 | 33991 ft | 441 kts | 229° |
| 2026-04-28 08:34 | 24.96036 | 118.46613 | 33987 ft | 442 kts | 229° |
| 2026-04-28 08:35 | 24.91799 | 118.41765 | 33990 ft | 442 kts | 229° |
| 2026-04-28 08:35 | 24.87530 | 118.36880 | 33990 ft | 441 kts | 229° |
| 2026-04-28 08:36 | 24.83292 | 118.32032 | 33990 ft | 440 kts | 229° |
| 2026-04-28 08:36 | 24.79039 | 118.27173 | 33986 ft | 440 kts | 229° |
| 2026-04-28 08:37 | 24.74795 | 118.22327 | 33982 ft | 439 kts | 228° |
| 2026-04-28 08:37 | 24.70546 | 118.17483 | 33987 ft | 440 kts | 228° |
| 2026-04-28 08:38 | 24.66313 | 118.12673 | 33991 ft | 440 kts | 228° |
| 2026-04-28 08:38 | 24.62048 | 118.07828 | 33991 ft | 440 kts | 228° |
| 2026-04-28 08:39 | 24.57802 | 118.03009 | 33996 ft | 439 kts | 228° |
| 2026-04-28 08:39 | 24.53621 | 117.98124 | 34002 ft | 439 kts | 230° |
| 2026-04-28 08:40 | 24.49524 | 117.93144 | 33999 ft | 439 kts | 230° |
| 2026-04-28 08:40 | 24.45437 | 117.88190 | 33990 ft | 439 kts | 230° |
| 2026-04-28 08:41 | 24.41314 | 117.83211 | 33987 ft | 439 kts | 229° |
| 2026-04-28 08:41 | 24.37226 | 117.78281 | 33980 ft | 439 kts | 229° |
| 2026-04-28 08:42 | 24.33109 | 117.73325 | 33975 ft | 439 kts | 229° |
| 2026-04-28 08:42 | 24.28988 | 117.68366 | 33984 ft | 440 kts | 229° |
| 2026-04-28 08:43 | 24.24883 | 117.63432 | 33996 ft | 440 kts | 229° |
| 2026-04-28 08:43 | 24.20776 | 117.58498 | 33998 ft | 440 kts | 229° |
| 2026-04-28 08:44 | 24.16662 | 117.53565 | 34013 ft | 440 kts | 229° |
| 2026-04-28 08:44 | 24.12370 | 117.48763 | 34021 ft | 440 kts | 224° |
| 2026-04-28 08:45 | 24.07831 | 117.44298 | 34026 ft | 440 kts | 224° |
| 2026-04-28 08:45 | 24.03275 | 117.39827 | 34023 ft | 440 kts | 224° |
| 2026-04-28 08:46 | 23.98700 | 117.35341 | 34015 ft | 439 kts | 224° |
| 2026-04-28 08:46 | 23.94131 | 117.30868 | 34004 ft | 440 kts | 223° |
| 2026-04-28 08:47 | 23.89575 | 117.26409 | 33990 ft | 442 kts | 223° |
| 2026-04-28 08:47 | 23.84978 | 117.21913 | 33979 ft | 442 kts | 223° |
| 2026-04-28 08:48 | 23.80404 | 117.17447 | 33972 ft | 442 kts | 223° |
| 2026-04-28 08:48 | 23.75867 | 117.12890 | 33967 ft | 442 kts | 226° |
| 2026-04-28 08:49 | 23.71627 | 117.08095 | 33963 ft | 441 kts | 227° |
| 2026-04-28 08:49 | 23.67367 | 117.03246 | 33962 ft | 441 kts | 227° |
| 2026-04-28 08:50 | 23.63138 | 116.98435 | 33969 ft | 442 kts | 227° |
| 2026-04-28 08:50 | 23.58873 | 116.93582 | 33979 ft | 441 kts | 227° |
| 2026-04-28 08:51 | 23.54634 | 116.88762 | 33978 ft | 442 kts | 227° |
| 2026-04-28 08:51 | 23.50376 | 116.83925 | 33968 ft | 442 kts | 227° |
| 2026-04-28 08:52 | 23.46071 | 116.79085 | 33968 ft | 443 kts | 225° |
| 2026-04-28 08:52 | 23.41459 | 116.74627 | 33966 ft | 444 kts | 220° |
| 2026-04-28 08:53 | 23.36534 | 116.70506 | 33964 ft | 444 kts | 219° |
| 2026-04-28 08:53 | 23.31622 | 116.66417 | 33964 ft | 445 kts | 219° |
| 2026-04-28 08:54 | 23.26709 | 116.62336 | 33960 ft | 445 kts | 219° |
| 2026-04-28 08:54 | 23.21774 | 116.58240 | 33958 ft | 446 kts | 219° |
| 2026-04-28 08:55 | 23.16820 | 116.54132 | 33763 ft | 447 kts | 219° |
| 2026-04-28 08:55 | 23.14353 | 116.52087 | 33465 ft | 445 kts | 219° |
| 2026-04-28 08:55 | 23.11892 | 116.50047 | 33129 ft | 443 kts | 219° |
| 2026-04-28 08:55 | 23.09456 | 116.48029 | 32732 ft | 441 kts | 219° |
| 2026-04-28 08:56 | 23.06993 | 116.45989 | 32237 ft | 441 kts | 219° |
| 2026-04-28 08:56 | 23.04558 | 116.43974 | 31705 ft | 441 kts | 219° |
| 2026-04-28 08:56 | 23.02133 | 116.41971 | 31206 ft | 440 kts | 219° |
| 2026-04-28 08:56 | 22.99627 | 116.39853 | 30614 ft | 439 kts | 223° |
| 2026-04-28 08:57 | 22.97593 | 116.37505 | 30133 ft | 436 kts | 233° |
| 2026-04-28 08:57 | 22.95890 | 116.34583 | 29771 ft | 429 kts | 243° |
| 2026-04-28 08:57 | 22.94729 | 116.31371 | 29361 ft | 426 kts | 253° |
| 2026-04-28 08:57 | 22.94163 | 116.28194 | 28948 ft | 424 kts | 261° |
| 2026-04-28 08:58 | 22.93817 | 116.24927 | 28544 ft | 420 kts | 262° |
| 2026-04-28 08:58 | 22.93489 | 116.21611 | 28159 ft | 416 kts | 262° |
| 2026-04-28 08:58 | 22.93165 | 116.18346 | 27764 ft | 413 kts | 262° |
| 2026-04-28 08:58 | 22.92842 | 116.15126 | 27363 ft | 409 kts | 262° |
| 2026-04-28 08:59 | 22.92518 | 116.11928 | 26997 ft | 405 kts | 262° |
| 2026-04-28 08:59 | 22.92193 | 116.08758 | 26632 ft | 401 kts | 262° |
| 2026-04-28 08:59 | 22.91867 | 116.05598 | 26258 ft | 398 kts | 262° |
| 2026-04-28 08:59 | 22.91541 | 116.02447 | 25907 ft | 394 kts | 262° |
| 2026-04-28 09:00 | 22.91220 | 115.99350 | 25544 ft | 392 kts | 262° |
| 2026-04-28 09:00 | 22.90896 | 115.96265 | 25194 ft | 389 kts | 262° |
| 2026-04-28 09:00 | 22.90582 | 115.93266 | 24849 ft | 386 kts | 262° |
| 2026-04-28 09:00 | 22.90259 | 115.90196 | 24498 ft | 384 kts | 262° |
| 2026-04-28 09:01 | 22.89940 | 115.87148 | 24138 ft | 381 kts | 263° |
| 2026-04-28 09:01 | 22.89636 | 115.84138 | 23779 ft | 379 kts | 263° |
| 2026-04-28 09:01 | 22.89342 | 115.81199 | 23411 ft | 377 kts | 263° |
| 2026-04-28 09:01 | 22.89045 | 115.78229 | 23031 ft | 375 kts | 263° |
| 2026-04-28 09:02 | 22.88748 | 115.75272 | 22675 ft | 373 kts | 263° |
| 2026-04-28 09:02 | 22.88455 | 115.72353 | 22309 ft | 372 kts | 263° |
| 2026-04-28 09:02 | 22.88161 | 115.69423 | 21965 ft | 369 kts | 263° |
| 2026-04-28 09:02 | 22.87864 | 115.66469 | 21636 ft | 367 kts | 263° |
| 2026-04-28 09:03 | 22.87574 | 115.63591 | 21313 ft | 365 kts | 263° |
| 2026-04-28 09:03 | 22.87286 | 115.60754 | 20990 ft | 363 kts | 263° |
| 2026-04-28 09:03 | 22.86997 | 115.57916 | 20653 ft | 361 kts | 263° |
| 2026-04-28 09:03 | 22.86707 | 115.55064 | 20322 ft | 358 kts | 263° |
| 2026-04-28 09:04 | 22.86419 | 115.52251 | 19984 ft | 356 kts | 263° |
| 2026-04-28 09:04 | 22.86140 | 115.49503 | 19642 ft | 354 kts | 263° |
| 2026-04-28 09:04 | 22.85860 | 115.46769 | 19307 ft | 352 kts | 263° |
| 2026-04-28 09:04 | 22.85577 | 115.44007 | 18988 ft | 350 kts | 263° |
| 2026-04-28 09:05 | 22.85294 | 115.41253 | 18653 ft | 348 kts | 263° |
| 2026-04-28 09:05 | 22.85016 | 115.38539 | 18320 ft | 346 kts | 263° |
| 2026-04-28 09:05 | 22.84739 | 115.35856 | 17983 ft | 344 kts | 263° |
| 2026-04-28 09:05 | 22.84456 | 115.33112 | 17643 ft | 342 kts | 263° |
| 2026-04-28 09:06 | 22.84178 | 115.30415 | 17317 ft | 340 kts | 263° |
| 2026-04-28 09:06 | 22.83894 | 115.27673 | 16971 ft | 338 kts | 263° |
| 2026-04-28 09:06 | 22.83632 | 115.25139 | 16652 ft | 337 kts | 263° |
| 2026-04-28 09:06 | 22.83360 | 115.22509 | 16296 ft | 336 kts | 263° |
| 2026-04-28 09:07 | 22.83080 | 115.19820 | 15944 ft | 335 kts | 263° |
| 2026-04-28 09:07 | 22.82806 | 115.17183 | 15576 ft | 334 kts | 263° |
| 2026-04-28 09:07 | 22.82531 | 115.14555 | 15216 ft | 334 kts | 263° |
| 2026-04-28 09:07 | 22.82255 | 115.11910 | 14849 ft | 333 kts | 263° |
| 2026-04-28 09:08 | 22.81984 | 115.09315 | 14489 ft | 333 kts | 262° |
| 2026-04-28 09:08 | 22.81715 | 115.06739 | 14150 ft | 332 kts | 262° |
| 2026-04-28 09:08 | 22.81437 | 115.04088 | 13805 ft | 330 kts | 262° |
| 2026-04-28 09:08 | 22.81167 | 115.01511 | 13455 ft | 329 kts | 262° |
| 2026-04-28 09:09 | 22.80895 | 114.98929 | 13124 ft | 328 kts | 262° |
| 2026-04-28 09:09 | 22.80623 | 114.96364 | 12884 ft | 339 kts | 262° |
| 2026-04-28 09:09 | 22.80334 | 114.93645 | 12850 ft | 344 kts | 262° |
| 2026-04-28 09:09 | 22.80050 | 114.90964 | 12850 ft | 345 kts | 262° |
| 2026-04-28 09:10 | 22.79761 | 114.88242 | 12852 ft | 346 kts | 262° |
| 2026-04-28 09:10 | 22.79468 | 114.85479 | 12850 ft | 346 kts | 262° |
| 2026-04-28 09:10 | 22.79189 | 114.82852 | 12843 ft | 346 kts | 262° |
| 2026-04-28 09:10 | 22.78915 | 114.80272 | 12468 ft | 348 kts | 262° |
| 2026-04-28 09:11 | 22.78634 | 114.77640 | 11736 ft | 357 kts | 262° |
| 2026-04-28 09:11 | 22.78350 | 114.74981 | 11263 ft | 356 kts | 262° |
| 2026-04-28 09:11 | 22.78077 | 114.72334 | 10963 ft | 350 kts | 263° |
| 2026-04-28 09:11 | 22.77817 | 114.69757 | 10647 ft | 345 kts | 262° |
| 2026-04-28 09:12 | 22.77557 | 114.67185 | 10342 ft | 341 kts | 262° |
| 2026-04-28 09:12 | 22.77291 | 114.64656 | 10030 ft | 336 kts | 260° |
| 2026-04-28 09:12 | 22.76548 | 114.62308 | 9685 ft | 329 kts | 236° |
| 2026-04-28 09:12 | 22.75013 | 114.60498 | 9394 ft | 325 kts | 225° |
| 2026-04-28 09:13 | 22.73440 | 114.58746 | 9088 ft | 321 kts | 227° |
| 2026-04-28 09:13 | 22.71947 | 114.56961 | 8783 ft | 318 kts | 229° |
| 2026-04-28 09:13 | 22.70503 | 114.55189 | 8474 ft | 316 kts | 229° |
| 2026-04-28 09:13 | 22.69073 | 114.53384 | 8161 ft | 313 kts | 231° |
| 2026-04-28 09:14 | 22.67867 | 114.51421 | 7853 ft | 311 kts | 241° |
| 2026-04-28 09:14 | 22.66876 | 114.49370 | 7552 ft | 309 kts | 242° |
| 2026-04-28 09:14 | 22.65911 | 114.47293 | 7245 ft | 307 kts | 242° |
| 2026-04-28 09:14 | 22.64971 | 114.45226 | 6938 ft | 305 kts | 243° |
| 2026-04-28 09:15 | 22.64079 | 114.43168 | 6631 ft | 304 kts | 247° |
| 2026-04-28 09:15 | 22.63493 | 114.40969 | 6319 ft | 304 kts | 257° |
| 2026-04-28 09:15 | 22.63159 | 114.38699 | 6009 ft | 304 kts | 259° |
| 2026-04-28 09:15 | 22.62869 | 114.36454 | 5699 ft | 303 kts | 259° |
| 2026-04-28 09:16 | 22.62575 | 114.34190 | 5388 ft | 302 kts | 259° |
| 2026-04-28 09:16 | 22.62272 | 114.31911 | 5081 ft | 300 kts | 259° |
| 2026-04-28 09:16 | 22.61974 | 114.29690 | 4903 ft | 294 kts | 258° |
| 2026-04-28 09:16 | 22.61672 | 114.27465 | 4769 ft | 287 kts | 258° |
| 2026-04-28 09:17 | 22.61372 | 114.25251 | 4756 ft | 275 kts | 258° |
| 2026-04-28 09:17 | 22.61092 | 114.23183 | 4747 ft | 264 kts | 258° |
| 2026-04-28 09:17 | 22.60814 | 114.21141 | 4745 ft | 253 kts | 258° |
| 2026-04-28 09:17 | 22.60550 | 114.19211 | 4743 ft | 242 kts | 258° |
| 2026-04-28 09:18 | 22.60302 | 114.17419 | 4745 ft | 238 kts | 258° |
| 2026-04-28 09:18 | 22.60066 | 114.15701 | 4736 ft | 227 kts | 258° |
| 2026-04-28 09:18 | 22.59840 | 114.14046 | 4703 ft | 217 kts | 258° |
| 2026-04-28 09:18 | 22.59630 | 114.12498 | 4817 ft | 201 kts | 257° |
| 2026-04-28 09:19 | 22.59434 | 114.11126 | 4889 ft | 187 kts | 253° |
| 2026-04-28 09:19 | 22.59102 | 114.09911 | 4896 ft | 182 kts | 244° |
| 2026-04-28 09:19 | 22.58551 | 114.08664 | 4730 ft | 181 kts | 239° |
| 2026-04-28 09:19 | 22.57962 | 114.07454 | 4553 ft | 180 kts | 238° |
| 2026-04-28 09:20 | 22.57377 | 114.06265 | 4377 ft | 180 kts | 238° |
| 2026-04-28 09:20 | 22.56790 | 114.05064 | 4207 ft | 180 kts | 238° |
| 2026-04-28 09:20 | 22.56214 | 114.03878 | 4043 ft | 180 kts | 238° |
| 2026-04-28 09:20 | 22.55630 | 114.02675 | 3874 ft | 180 kts | 238° |
| 2026-04-28 09:21 | 22.55048 | 114.01469 | 3710 ft | 179 kts | 238° |
| 2026-04-28 09:21 | 22.54477 | 114.00287 | 3550 ft | 179 kts | 238° |
| 2026-04-28 09:21 | 22.53898 | 113.99090 | 3384 ft | 179 kts | 238° |
| 2026-04-28 09:21 | 22.53324 | 113.97901 | 3221 ft | 178 kts | 238° |
| 2026-04-28 09:22 | 22.52767 | 113.96689 | 3057 ft | 179 kts | 240° |
| 2026-04-28 09:22 | 22.52230 | 113.95472 | 2893 ft | 179 kts | 240° |
| 2026-04-28 09:22 | 22.51678 | 113.94286 | 2730 ft | 178 kts | 238° |
| 2026-04-28 09:22 | 22.51100 | 113.93085 | 2566 ft | 178 kts | 238° |
| 2026-04-28 09:23 | 22.50531 | 113.91908 | 2404 ft | 178 kts | 238° |
| 2026-04-28 09:23 | 22.49974 | 113.90704 | 2325 ft | 179 kts | 247° |
| 2026-04-28 09:23 | 22.49944 | 113.89346 | 2309 ft | 188 kts | 285° |
| 2026-04-28 09:23 | 22.50721 | 113.88197 | 2221 ft | 194 kts | 324° |